Time;durP1;ratioP1;P1;durP2;ratioP2;P2;SDS_P1;SDS_P2;PMS_P1;PMS_P2;Temp;Humidity;BMP_temperature;BMP_pressure;BME280_temperature;BME280_humidity;BME280_pressure;Samples;Min_cycle;Max_cycle;Signal;HPM_P1;HPM_P2
2024/02/17 00:02:21;;;;;;;29.98;18.67;;;11.90;99.90;;;;;;5036434;28;20053;-74
2024/02/17 00:04:47;;;;;;;36.95;18.90;;;11.80;99.90;;;;;;5040120;28;20107;-72
2024/02/17 00:07:13;;;;;;;41.00;18.77;;;11.80;99.90;;;;;;5038448;28;20029;-73
2024/02/17 00:09:38;;;;;;;37.25;19.05;;;11.80;99.90;;;;;;5037132;28;20120;-72
2024/02/17 00:12:04;;;;;;;34.42;19.55;;;11.80;99.90;;;;;;5039435;28;20029;-74
2024/02/17 00:14:30;;;;;;;37.05;18.90;;;11.80;99.90;;;;;;5040852;28;20021;-73
2024/02/17 00:16:56;;;;;;;29.83;18.20;;;11.70;99.90;;;;;;5037772;28;20025;-73
2024/02/17 00:19:21;;;;;;;41.42;20.63;;;11.80;99.90;;;;;;5039117;28;20502;-73
2024/02/17 00:21:47;;;;;;;37.50;19.50;;;11.80;99.90;;;;;;5038581;28;20433;-73
2024/02/17 00:24:13;;;;;;;37.97;20.30;;;11.70;99.90;;;;;;5036376;28;20041;-73
2024/02/17 00:26:38;;;;;;;30.50;19.75;;;11.70;99.90;;;;;;5039051;28;20044;-73
2024/02/17 00:29:04;;;;;;;30.65;18.25;;;11.70;99.90;;;;;;5034975;28;20029;-73
2024/02/17 00:31:30;;;;;;;37.95;19.50;;;11.70;99.90;;;;;;5035551;28;20043;-73
2024/02/17 00:33:56;;;;;;;31.15;18.70;;;11.70;99.90;;;;;;5035378;28;20021;-73
2024/02/17 00:36:21;;;;;;;30.83;18.83;;;11.80;99.90;;;;;;5039072;28;20056;-73
2024/02/17 00:38:47;;;;;;;33.58;18.10;;;11.80;99.90;;;;;;5039517;28;20104;-73
2024/02/17 00:41:13;;;;;;;30.25;19.17;;;11.80;99.90;;;;;;5038044;28;20033;-73
2024/02/17 00:43:39;;;;;;;41.60;19.10;;;11.80;99.90;;;;;;5037001;28;20094;-73
2024/02/17 00:46:04;;;;;;;36.20;19.75;;;11.80;99.90;;;;;;5038575;28;20469;-73
2024/02/17 00:48:32;;;;;;;34.10;18.60;;;11.80;99.90;;;;;;5041431;28;20025;-73
2024/02/17 00:50:57;;;;;;;41.33;19.63;;;11.70;99.90;;;;;;5042085;28;20033;-73
2024/02/17 00:53:23;;;;;;;31.67;17.63;;;11.70;99.90;;;;;;5038353;28;20508;-73
2024/02/17 00:55:49;;;;;;;29.45;17.23;;;11.80;99.90;;;;;;5037443;28;20025;-72
2024/02/17 00:58:15;;;;;;;32.15;18.05;;;11.70;99.90;;;;;;5036425;28;20393;-72
2024/02/17 01:00:40;;;;;;;32.80;17.55;;;11.70;99.90;;;;;;5038804;28;20381;-73
2024/02/17 01:03:06;;;;;;;37.90;20.10;;;11.70;99.90;;;;;;5033583;28;20041;-73
2024/02/17 01:05:32;;;;;;;34.55;19.45;;;11.80;99.90;;;;;;5036513;28;20025;-72
2024/02/17 01:07:58;;;;;;;39.53;21.25;;;11.70;99.90;;;;;;5036353;28;20029;-72
2024/02/17 01:10:24;;;;;;;45.33;18.17;;;11.80;99.90;;;;;;5040556;28;20021;-73
2024/02/17 01:12:49;;;;;;;32.70;17.55;;;11.80;99.90;;;;;;5038328;28;20504;-73
2024/02/17 01:15:15;;;;;;;35.20;20.65;;;11.80;99.90;;;;;;5039170;28;20029;-73
2024/02/17 01:17:41;;;;;;;35.28;19.52;;;11.80;99.90;;;;;;5040535;28;20036;-73
2024/02/17 01:20:07;;;;;;;35.67;18.75;;;11.80;99.90;;;;;;5037458;28;20470;-73
2024/02/17 01:22:33;;;;;;;36.33;19.27;;;11.80;99.90;;;;;;5039851;28;20041;-73
2024/02/17 01:24:58;;;;;;;42.33;19.13;;;11.80;99.90;;;;;;5036092;28;20128;-72
2024/02/17 01:27:24;;;;;;;29.10;19.50;;;11.80;99.90;;;;;;5031011;28;20020;-73
2024/02/17 01:29:50;;;;;;;29.58;18.02;;;11.70;99.90;;;;;;5036830;28;20496;-73
2024/02/17 01:32:16;;;;;;;37.08;18.92;;;11.70;99.90;;;;;;5032943;28;20379;-73
2024/02/17 01:34:41;;;;;;;36.67;17.20;;;11.80;99.90;;;;;;5022195;28;20475;-79
2024/02/17 01:37:07;;;;;;;31.60;17.02;;;11.80;99.90;;;;;;5022180;28;20033;-73
2024/02/17 01:39:32;;;;;;;37.63;17.85;;;11.80;99.90;;;;;;5031343;28;20040;-73
2024/02/17 01:41:58;;;;;;;33.67;17.27;;;11.70;99.90;;;;;;4986568;28;20122;-72
2024/02/17 01:44:27;;;;;;;35.38;17.60;;;11.70;99.90;;;;;;5030556;28;20042;-73
2024/02/17 01:46:54;;;;;;;29.85;17.63;;;11.70;99.90;;;;;;5031781;28;20036;-73
2024/02/17 01:49:20;;;;;;;36.65;17.55;;;11.70;99.90;;;;;;5030876;28;20096;-73
2024/02/17 01:51:46;;;;;;;32.92;16.60;;;11.70;99.90;;;;;;5035250;28;20025;-73
2024/02/17 01:54:13;;;;;;;34.25;17.80;;;11.70;99.90;;;;;;5030969;28;20041;-74
2024/02/17 01:56:40;;;;;;;36.63;17.02;;;11.70;99.90;;;;;;5028722;28;20208;-72
2024/02/17 01:59:06;;;;;;;33.15;17.05;;;11.70;99.90;;;;;;5009480;28;20022;-73
2024/02/17 02:01:33;;;;;;;36.03;17.88;;;11.70;99.90;;;;;;5029952;28;20033;-73
2024/02/17 02:03:59;;;;;;;34.20;18.30;;;11.70;99.90;;;;;;5034927;28;20051;-73
2024/02/17 02:06:24;;;;;;;31.33;18.02;;;11.70;99.90;;;;;;5037264;28;20474;-73
2024/02/17 02:08:51;;;;;;;35.13;18.35;;;11.80;99.90;;;;;;5036348;28;20021;-73
2024/02/17 02:11:18;;;;;;;33.35;17.50;;;11.80;99.90;;;;;;5035946;28;20021;-73
2024/02/17 02:13:44;;;;;;;35.83;19.13;;;11.80;99.90;;;;;;5038068;28;20060;-73
2024/02/17 02:16:10;;;;;;;36.35;18.17;;;11.80;99.90;;;;;;5040954;28;20198;-73
2024/02/17 02:18:35;;;;;;;34.47;17.52;;;11.80;99.90;;;;;;5037851;28;20151;-73
2024/02/17 02:21:01;;;;;;;45.28;18.00;;;11.80;99.90;;;;;;5042718;28;20122;-73
2024/02/17 02:23:27;;;;;;;33.53;17.92;;;11.80;99.90;;;;;;5042356;28;20045;-73
2024/02/17 02:25:53;;;;;;;29.75;16.30;;;11.80;99.90;;;;;;5040545;28;20053;-71
2024/02/17 02:28:20;;;;;;;38.33;16.95;;;11.80;99.90;;;;;;5038737;28;20029;-73
2024/02/17 02:30:45;;;;;;;32.80;17.58;;;11.80;99.90;;;;;;5041563;28;20025;-73
2024/02/17 02:33:11;;;;;;;32.08;17.20;;;11.70;99.90;;;;;;5042141;28;20032;-73
2024/02/17 02:35:37;;;;;;;32.35;16.27;;;11.70;99.90;;;;;;5038197;28;20446;-73
2024/02/17 02:38:03;;;;;;;33.25;16.52;;;11.70;99.90;;;;;;5041437;28;20089;-73
2024/02/17 02:40:29;;;;;;;32.50;16.95;;;11.70;99.90;;;;;;5038638;28;20013;-73
2024/02/17 02:42:56;;;;;;;32.75;16.83;;;11.60;99.90;;;;;;5042243;28;20037;-73
2024/02/17 02:45:22;;;;;;;34.95;16.67;;;11.70;99.90;;;;;;5041322;28;20021;-73
2024/02/17 02:47:47;;;;;;;28.05;15.43;;;11.70;99.90;;;;;;5042015;28;20048;-73
2024/02/17 02:50:13;;;;;;;28.70;16.35;;;11.70;99.90;;;;;;5037546;28;20043;-73
2024/02/17 02:52:39;;;;;;;33.88;15.85;;;11.80;99.90;;;;;;5037331;28;20013;-72
2024/02/17 02:55:05;;;;;;;32.25;15.98;;;11.90;99.90;;;;;;5044398;28;20043;-73
2024/02/17 02:57:31;;;;;;;31.25;15.40;;;11.80;99.90;;;;;;5037989;28;20478;-73
2024/02/17 03:00:00;;;;;;;27.30;15.98;;;11.80;99.90;;;;;;5041117;28;20020;-73
2024/02/17 03:02:26;;;;;;;32.55;15.95;;;11.80;99.90;;;;;;5040588;28;20104;-72
2024/02/17 03:04:54;;;;;;;34.30;15.65;;;11.80;99.90;;;;;;5038980;28;20120;-73
2024/02/17 03:07:20;;;;;;;34.17;16.38;;;11.80;99.90;;;;;;5038528;28;20049;-73
2024/02/17 03:09:46;;;;;;;34.17;14.50;;;11.80;99.90;;;;;;5039526;28;20138;-72
2024/02/17 03:12:11;;;;;;;32.00;15.52;;;11.80;99.90;;;;;;5043051;28;20032;-72
2024/02/17 03:14:39;;;;;;;30.88;16.05;;;11.80;99.90;;;;;;5041017;28;20389;-72
2024/02/17 03:17:05;;;;;;;28.40;15.02;;;11.90;99.90;;;;;;5038285;28;20021;-73
2024/02/17 03:19:31;;;;;;;26.45;14.20;;;11.90;99.90;;;;;;5041281;28;20034;-73
2024/02/17 03:21:57;;;;;;;32.22;15.60;;;11.80;99.90;;;;;;5039904;28;20025;-73
2024/02/17 03:24:23;;;;;;;37.13;15.27;;;11.80;99.90;;;;;;5043098;28;20389;-73
2024/02/17 03:26:49;;;;;;;31.17;15.82;;;11.90;99.90;;;;;;5039805;28;20027;-72
2024/02/17 03:29:15;;;;;;;30.63;14.95;;;11.90;99.90;;;;;;5037172;28;20067;-72
2024/02/17 03:31:41;;;;;;;26.95;13.93;;;11.90;99.90;;;;;;5041367;28;20005;-72
2024/02/17 03:34:06;;;;;;;28.00;13.77;;;11.90;99.90;;;;;;5039272;28;20390;-73
2024/02/17 03:36:35;;;;;;;27.17;14.48;;;11.90;99.90;;;;;;5038488;28;20063;-72
2024/02/17 03:39:08;;;;;;;24.92;15.25;;;11.90;99.90;;;;;;5038476;28;20418;-72
2024/02/17 03:41:37;;;;;;;29.35;14.73;;;11.80;99.90;;;;;;5040691;28;20025;-73
2024/02/17 03:44:04;;;;;;;31.98;15.43;;;11.80;99.90;;;;;;5040385;28;20047;-73
2024/02/17 03:46:30;;;;;;;29.05;14.45;;;11.80;99.90;;;;;;5041754;28;20024;-73
2024/02/17 03:48:56;;;;;;;30.70;15.27;;;11.90;99.90;;;;;;5035581;28;20048;-73
2024/02/17 03:51:21;;;;;;;30.08;15.40;;;11.80;99.90;;;;;;5038391;28;20494;-73
2024/02/17 03:53:47;;;;;;;23.55;13.68;;;11.80;99.90;;;;;;5037996;28;20061;-73
2024/02/17 03:56:17;;;;;;;26.77;14.45;;;11.90;99.90;;;;;;5040278;28;20021;-72
2024/02/17 03:58:43;;;;;;;24.67;14.63;;;11.80;99.90;;;;;;5039610;28;20029;-73
2024/02/17 04:01:09;;;;;;;26.90;15.10;;;11.80;99.90;;;;;;5039822;28;20381;-73
2024/02/17 04:03:34;;;;;;;23.60;15.02;;;11.80;99.90;;;;;;5040125;28;20480;-72
2024/02/17 04:06:01;;;;;;;26.80;14.60;;;11.80;99.90;;;;;;5040811;28;20025;-73
2024/02/17 04:08:27;;;;;;;38.20;15.68;;;11.80;99.90;;;;;;5040361;28;20023;-73
2024/02/17 04:10:54;;;;;;;28.25;15.68;;;11.70;99.90;;;;;;5039875;28;20402;-73
2024/02/17 04:13:19;;;;;;;22.52;14.63;;;11.70;99.90;;;;;;5040186;28;20024;-73
2024/02/17 04:15:45;;;;;;;27.20;14.85;;;11.80;99.90;;;;;;5037522;28;20032;-73
2024/02/17 04:18:11;;;;;;;33.47;14.65;;;11.70;99.90;;;;;;5035515;28;20047;-72
2024/02/17 04:20:37;;;;;;;24.20;13.15;;;11.70;99.90;;;;;;5038253;28;20026;-72
2024/02/17 04:23:06;;;;;;;28.30;14.45;;;11.70;99.90;;;;;;5038031;28;20033;-72
2024/02/17 04:25:32;;;;;;;29.20;15.55;;;11.80;99.90;;;;;;5038387;28;20048;-73
2024/02/17 04:28:03;;;;;;;25.25;14.68;;;11.70;99.90;;;;;;5035561;28;20021;-73
2024/02/17 04:30:29;;;;;;;27.30;14.77;;;11.80;99.90;;;;;;5041568;28;20474;-72
2024/02/17 04:32:55;;;;;;;22.60;14.05;;;11.80;99.90;;;;;;5042272;28;20549;-72
2024/02/17 04:35:21;;;;;;;35.88;16.70;;;11.80;99.90;;;;;;5036252;28;20136;-73
2024/02/17 04:37:47;;;;;;;26.83;15.35;;;11.90;99.90;;;;;;5043417;28;20501;-73
2024/02/17 04:40:15;;;;;;;26.15;15.77;;;11.90;99.90;;;;;;5038472;28;20061;-73
2024/02/17 04:42:41;;;;;;;26.30;14.77;;;11.80;99.90;;;;;;5033585;28;20472;-73
2024/02/17 04:45:07;;;;;;;24.98;13.50;;;11.80;99.90;;;;;;5036411;28;20037;-72
2024/02/17 04:47:33;;;;;;;26.33;14.32;;;11.80;99.90;;;;;;5038930;28;20064;-72
2024/02/17 04:49:58;;;;;;;28.63;14.75;;;11.80;99.90;;;;;;5038892;28;20080;-73
2024/02/17 04:52:24;;;;;;;23.88;14.10;;;11.80;99.90;;;;;;5039467;28;20525;-73
2024/02/17 04:54:50;;;;;;;25.35;13.98;;;11.80;99.90;;;;;;5039618;28;20096;-72
2024/02/17 04:57:17;;;;;;;33.03;14.93;;;11.90;99.90;;;;;;5033017;28;20467;-73
2024/02/17 04:59:43;;;;;;;33.42;15.27;;;11.80;99.90;;;;;;5030831;28;20108;-73
2024/02/17 05:02:09;;;;;;;30.75;14.40;;;11.80;99.90;;;;;;5038212;28;20449;-73
2024/02/17 05:04:35;;;;;;;25.00;13.95;;;11.90;99.90;;;;;;5040010;28;20045;-73
2024/02/17 05:07:00;;;;;;;27.80;15.18;;;11.80;99.90;;;;;;5038952;28;20355;-72
2024/02/17 05:09:26;;;;;;;27.33;15.20;;;11.80;99.90;;;;;;5037763;28;20363;-73
2024/02/17 05:11:55;;;;;;;26.02;14.18;;;11.90;99.90;;;;;;5040274;28;20065;-73
2024/02/17 05:14:23;;;;;;;23.73;13.43;;;11.90;99.90;;;;;;5037286;28;20108;-73
2024/02/17 05:16:49;;;;;;;27.35;15.50;;;11.90;99.90;;;;;;5037833;28;20017;-73
2024/02/17 05:19:15;;;;;;;24.05;15.18;;;11.80;99.90;;;;;;5037299;28;20378;-73
2024/02/17 05:21:44;;;;;;;30.55;13.75;;;11.90;99.90;;;;;;5032451;28;20394;-72
2024/02/17 05:24:11;;;;;;;30.33;15.25;;;11.90;99.90;;;;;;5032062;28;20033;-73
2024/02/17 05:26:37;;;;;;;30.55;14.85;;;12.00;99.90;;;;;;5035678;28;20051;-73
2024/02/17 05:29:07;;;;;;;28.52;14.40;;;11.90;99.90;;;;;;5032045;28;20387;-73
2024/02/17 05:31:34;;;;;;;26.05;14.05;;;11.80;99.90;;;;;;5033908;28;20052;-73
2024/02/17 05:34:00;;;;;;;29.30;13.38;;;11.80;99.90;;;;;;5032480;28;20478;-73
2024/02/17 05:36:26;;;;;;;29.70;13.77;;;11.80;99.90;;;;;;5030892;28;20014;-73
2024/02/17 05:38:52;;;;;;;30.45;14.75;;;11.80;99.90;;;;;;5030872;28;20100;-73
2024/02/17 05:41:18;;;;;;;23.23;12.80;;;11.80;99.90;;;;;;5030266;28;20096;-73
2024/02/17 05:43:44;;;;;;;26.25;13.82;;;11.80;99.90;;;;;;5031090;28;20033;-72
2024/02/17 05:46:10;;;;;;;24.15;15.23;;;11.70;99.90;;;;;;5032702;28;20809;-73
2024/02/17 05:48:35;;;;;;;27.73;15.00;;;11.60;99.90;;;;;;5031764;28;20034;-73
2024/02/17 05:51:02;;;;;;;27.77;14.00;;;11.70;99.90;;;;;;5034193;28;20076;-73
2024/02/17 05:53:28;;;;;;;35.03;15.65;;;11.70;99.90;;;;;;5032656;28;20033;-73
2024/02/17 05:55:53;;;;;;;28.35;14.55;;;11.70;99.90;;;;;;5030317;28;20108;-73
2024/02/17 05:58:19;;;;;;;26.52;14.52;;;11.70;99.90;;;;;;5037406;28;20057;-73
2024/02/17 06:00:44;;;;;;;29.88;14.77;;;11.70;99.90;;;;;;5035113;28;20084;-73
2024/02/17 06:03:10;;;;;;;25.35;15.02;;;11.70;99.90;;;;;;5036243;28;20039;-73
2024/02/17 06:05:36;;;;;;;24.77;14.75;;;11.80;99.90;;;;;;5031769;28;20030;-73
2024/02/17 06:08:02;;;;;;;25.10;15.10;;;11.80;99.90;;;;;;5031793;28;20028;-73
2024/02/17 06:10:28;;;;;;;31.45;15.32;;;11.70;99.90;;;;;;5032725;28;20029;-73
2024/02/17 06:12:53;;;;;;;29.85;15.18;;;11.70;99.90;;;;;;5032347;28;20489;-72
2024/02/17 06:15:19;;;;;;;27.17;15.77;;;11.70;99.90;;;;;;5037601;28;20082;-72
2024/02/17 06:17:47;;;;;;;32.38;15.98;;;11.70;99.90;;;;;;5036583;28;20033;-73
2024/02/17 06:22:57;;;;;;;26.17;14.20;;;11.70;99.90;;;;;;5036620;28;20036;-72
2024/02/17 06:25:23;;;;;;;19.80;10.70;;;11.70;99.90;;;;;;5039515;28;20803;-73
2024/02/17 06:27:49;;;;;;;28.05;15.50;;;11.80;99.90;;;;;;5037053;28;20055;-73
2024/02/17 06:30:15;;;;;;;28.70;14.57;;;11.70;99.90;;;;;;5040195;28;20020;-73
2024/02/17 06:32:42;;;;;;;35.28;15.55;;;11.70;99.90;;;;;;5041822;28;20020;-73
2024/02/17 06:35:09;;;;;;;32.10;16.00;;;11.80;99.90;;;;;;5039741;28;20017;-73
2024/02/17 06:37:35;;;;;;;35.97;15.18;;;11.80;99.90;;;;;;5042521;28;20021;-73
2024/02/17 06:40:01;;;;;;;28.60;14.63;;;11.70;99.90;;;;;;5038028;28;20036;-73
2024/02/17 06:42:26;;;;;;;38.80;16.70;;;11.70;99.90;;;;;;5040769;28;20021;-72
2024/02/17 06:44:52;;;;;;;32.65;16.45;;;11.70;99.90;;;;;;5045080;28;20120;-73
2024/02/17 06:47:19;;;;;;;26.38;15.63;;;11.70;99.90;;;;;;5041395;28;20049;-73
2024/02/17 06:49:45;;;;;;;32.90;16.67;;;11.70;99.90;;;;;;5041727;28;20059;-73
2024/02/17 06:52:11;;;;;;;27.88;17.23;;;11.70;99.90;;;;;;5041507;28;20021;-73
2024/02/17 06:54:37;;;;;;;33.53;15.73;;;11.70;99.90;;;;;;5039223;28;20036;-73
2024/02/17 06:57:04;;;;;;;28.75;15.75;;;11.70;99.90;;;;;;5037775;28;20018;-73
2024/02/17 06:59:29;;;;;;;34.90;17.92;;;11.70;99.90;;;;;;5037507;28;20033;-72
2024/02/17 07:01:56;;;;;;;36.85;17.02;;;11.70;99.90;;;;;;5039321;28;20100;-73
2024/02/17 07:04:21;;;;;;;33.78;17.45;;;11.80;99.90;;;;;;5036346;28;20029;-73
2024/02/17 07:06:47;;;;;;;28.38;15.40;;;11.80;99.90;;;;;;5034452;28;21113;-78
2024/02/17 07:09:18;;;;;;;33.13;16.02;;;11.80;99.90;;;;;;5035981;28;20029;-72
2024/02/17 07:11:44;;;;;;;37.40;17.38;;;11.80;99.90;;;;;;5036125;28;20492;-74
2024/02/17 07:14:12;;;;;;;34.33;17.80;;;11.90;99.90;;;;;;5035501;28;20037;-74
2024/02/17 07:16:38;;;;;;;36.90;17.70;;;11.90;99.90;;;;;;5042307;28;20436;-73
2024/02/17 07:19:03;;;;;;;32.42;16.88;;;11.80;99.90;;;;;;5036647;28;20491;-74
2024/02/17 07:21:30;;;;;;;34.50;16.50;;;11.80;99.90;;;;;;5033694;28;20032;-73
2024/02/17 07:23:56;;;;;;;32.88;16.27;;;11.80;99.90;;;;;;5038043;28;20124;-73
2024/02/17 07:26:21;;;;;;;26.48;15.55;;;11.80;99.90;;;;;;5038940;28;20099;-74
2024/02/17 07:28:48;;;;;;;25.42;15.50;;;11.80;99.90;;;;;;5037668;28;20040;-74
2024/02/17 07:31:16;;;;;;;32.90;16.00;;;11.80;99.90;;;;;;5040458;28;20029;-73
2024/02/17 07:33:43;;;;;;;26.17;15.40;;;11.70;99.90;;;;;;5040379;28;20029;-72
2024/02/17 07:36:09;;;;;;;32.00;15.70;;;11.80;99.90;;;;;;5039276;28;20025;-73
2024/02/17 07:38:36;;;;;;;28.85;14.80;;;11.70;99.90;;;;;;5038874;28;20111;-72
2024/02/17 07:41:02;;;;;;;34.30;17.67;;;11.60;99.90;;;;;;5037567;28;20133;-72
2024/02/17 07:43:27;;;;;;;29.45;16.17;;;11.50;99.90;;;;;;5042553;28;20096;-72
2024/02/17 07:45:53;;;;;;;32.00;16.77;;;11.60;99.90;;;;;;5034762;28;20021;-73
2024/02/17 07:48:19;;;;;;;30.55;16.27;;;11.60;99.90;;;;;;5037310;28;20035;-72
2024/02/17 07:50:45;;;;;;;30.20;15.05;;;11.50;99.90;;;;;;5035977;28;20154;-73
2024/02/17 07:53:10;;;;;;;29.38;14.70;;;11.60;99.90;;;;;;5051589;28;20463;-72
2024/02/17 07:55:36;;;;;;;30.27;14.65;;;11.60;99.90;;;;;;5037123;28;20040;-73
2024/02/17 07:58:05;;;;;;;25.38;15.20;;;11.50;99.90;;;;;;5036121;28;20021;-73
2024/02/17 08:00:31;;;;;;;28.23;15.10;;;11.50;99.90;;;;;;5040729;28;20026;-73
2024/02/17 08:02:58;;;;;;;28.20;14.02;;;11.50;99.90;;;;;;5036094;28;20033;-73
2024/02/17 08:05:23;;;;;;;29.83;14.63;;;11.50;99.90;;;;;;5038376;28;20068;-73
2024/02/17 08:07:49;;;;;;;29.02;15.60;;;11.50;99.90;;;;;;5041349;28;20045;-73
2024/02/17 08:10:15;;;;;;;32.28;14.10;;;11.60;99.90;;;;;;5032297;28;20033;-72
2024/02/17 08:12:42;;;;;;;23.00;13.15;;;11.50;99.90;;;;;;5033734;28;20053;-72
2024/02/17 08:15:08;;;;;;;27.27;14.32;;;11.60;99.90;;;;;;5035412;28;20037;-72
2024/02/17 08:17:34;;;;;;;30.23;14.32;;;11.60;99.90;;;;;;5036599;28;20110;-72
2024/02/17 08:20:00;;;;;;;26.52;14.30;;;11.60;99.90;;;;;;5036056;28;20028;-73
2024/02/17 08:22:26;;;;;;;28.80;13.30;;;11.60;99.90;;;;;;5036313;28;20071;-72
2024/02/17 08:24:52;;;;;;;27.42;13.43;;;11.70;99.90;;;;;;5035165;28;20051;-72
2024/02/17 08:27:17;;;;;;;31.77;13.52;;;11.80;99.90;;;;;;5035664;28;20055;-72
2024/02/17 08:29:43;;;;;;;26.45;14.05;;;11.80;99.90;;;;;;5039352;28;20031;-72
2024/02/17 08:32:09;;;;;;;28.38;14.10;;;11.80;99.90;;;;;;5037134;28;20441;-72
2024/02/17 08:34:34;;;;;;;26.23;14.43;;;11.80;99.90;;;;;;5040583;28;20519;-72
2024/02/17 08:37:00;;;;;;;27.38;14.13;;;11.80;99.90;;;;;;5033989;28;20466;-72
2024/02/17 08:39:25;;;;;;;30.13;13.93;;;11.90;99.90;;;;;;5036585;28;20032;-72
2024/02/17 08:41:55;;;;;;;24.27;13.40;;;11.80;99.90;;;;;;5038242;28;20109;-72
2024/02/17 08:44:21;;;;;;;25.00;13.63;;;11.90;99.90;;;;;;5040093;28;20029;-72
2024/02/17 08:46:46;;;;;;;26.52;13.25;;;11.90;99.90;;;;;;5034010;28;20393;-72
2024/02/17 08:49:12;;;;;;;27.05;13.68;;;11.80;99.90;;;;;;5035136;28;20017;-72
2024/02/17 08:51:38;;;;;;;30.98;13.98;;;11.80;99.90;;;;;;5035230;28;20089;-72
2024/02/17 08:54:03;;;;;;;24.23;14.10;;;11.90;99.90;;;;;;5039150;28;20454;-72
2024/02/17 08:56:29;;;;;;;28.48;14.27;;;11.90;99.90;;;;;;5040450;28;20017;-72
2024/02/17 08:58:55;;;;;;;22.05;12.38;;;11.90;99.90;;;;;;5035789;28;20028;-73
2024/02/17 09:01:20;;;;;;;26.55;13.20;;;11.90;99.90;;;;;;5028181;28;20071;-74
2024/02/17 09:03:46;;;;;;;31.95;14.45;;;11.90;99.90;;;;;;5028233;28;20057;-73
2024/02/17 09:06:12;;;;;;;24.70;13.15;;;11.90;99.90;;;;;;5033395;28;20382;-73
2024/02/17 09:08:39;;;;;;;24.55;11.73;;;11.80;99.90;;;;;;5035837;28;20040;-74
2024/02/17 09:11:05;;;;;;;26.90;12.30;;;11.90;99.90;;;;;;5029115;28;20022;-73
2024/02/17 09:13:31;;;;;;;28.63;12.82;;;11.90;99.90;;;;;;5031067;28;20395;-73
2024/02/17 09:15:56;;;;;;;20.25;11.85;;;11.90;99.90;;;;;;5031514;28;20025;-74
2024/02/17 09:18:25;;;;;;;22.58;12.52;;;11.90;99.90;;;;;;5033535;28;20032;-74
2024/02/17 09:20:51;;;;;;;26.00;12.07;;;11.90;99.90;;;;;;5038874;28;20104;-73
2024/02/17 09:23:16;;;;;;;30.08;12.80;;;12.00;99.90;;;;;;5041025;28;20116;-72
2024/02/17 09:25:42;;;;;;;23.83;13.32;;;12.10;99.90;;;;;;5039277;28;20028;-73
2024/02/17 09:28:08;;;;;;;23.25;12.57;;;12.10;99.90;;;;;;5033526;28;20040;-73
2024/02/17 09:30:34;;;;;;;19.60;12.75;;;12.10;99.90;;;;;;5041707;28;20520;-73
2024/02/17 09:33:01;;;;;;;26.77;12.18;;;12.20;99.90;;;;;;5043222;28;20064;-72
2024/02/17 09:35:27;;;;;;;25.80;12.13;;;12.10;99.90;;;;;;5041399;28;20021;-73
2024/02/17 09:37:53;;;;;;;26.38;11.55;;;12.10;99.90;;;;;;5042204;28;20036;-73
2024/02/17 09:40:20;;;;;;;25.73;12.05;;;12.10;99.90;;;;;;5044624;28;20477;-75
2024/02/17 09:42:47;;;;;;;21.48;11.15;;;12.20;99.90;;;;;;5044077;28;20037;-74
2024/02/17 09:45:13;;;;;;;23.95;11.95;;;12.20;99.90;;;;;;5044594;28;20489;-73
2024/02/17 09:47:43;;;;;;;21.45;12.68;;;12.20;99.90;;;;;;5040538;28;20485;-72
2024/02/17 09:50:17;;;;;;;30.67;13.60;;;12.20;99.90;;;;;;5040044;28;20025;-72
2024/02/17 09:52:44;;;;;;;25.27;10.98;;;12.20;99.90;;;;;;5041111;28;20017;-73
2024/02/17 09:55:10;;;;;;;23.30;12.02;;;12.20;99.90;;;;;;5042548;28;20030;-72
2024/02/17 09:57:38;;;;;;;24.83;11.30;;;12.30;99.90;;;;;;5044865;28;20486;-73
2024/02/17 10:00:09;;;;;;;23.80;11.95;;;12.30;99.90;;;;;;5041576;28;20037;-72
2024/02/17 10:02:36;;;;;;;23.05;10.40;;;12.40;99.90;;;;;;5040286;28;20087;-74
2024/02/17 10:05:02;;;;;;;25.42;10.88;;;12.40;99.90;;;;;;5043114;28;20517;-73
2024/02/17 10:07:29;;;;;;;23.35;10.88;;;12.50;99.90;;;;;;5042484;28;20017;-74
2024/02/17 10:09:54;;;;;;;21.27;11.38;;;12.50;99.90;;;;;;5036331;28;20059;-73
2024/02/17 10:12:20;;;;;;;20.77;10.00;;;12.60;99.90;;;;;;5033139;28;20482;-74
2024/02/17 10:14:52;;;;;;;23.60;10.90;;;12.50;99.90;;;;;;5046181;28;20167;-72
2024/02/17 10:17:22;;;;;;;25.73;13.98;;;12.50;99.90;;;;;;5040311;28;20466;-73
2024/02/17 10:19:48;;;;;;;23.73;10.52;;;12.50;99.90;;;;;;5045295;28;20323;-75
2024/02/17 10:22:13;;;;;;;27.75;10.05;;;12.50;99.90;;;;;;5040575;28;20623;-73
2024/02/17 10:24:39;;;;;;;23.52;9.80;;;12.50;99.90;;;;;;5041987;28;20489;-73
2024/02/17 10:27:05;;;;;;;22.85;10.82;;;12.50;99.90;;;;;;5042990;28;20480;-73
2024/02/17 10:29:32;;;;;;;19.10;9.60;;;12.60;99.90;;;;;;5043575;28;20021;-73
2024/02/17 10:31:58;;;;;;;20.80;10.52;;;12.60;99.90;;;;;;5044864;28;20067;-74
2024/02/17 10:34:24;;;;;;;21.77;9.30;;;12.70;99.90;;;;;;5043838;28;20025;-73
2024/02/17 10:36:51;;;;;;;25.20;10.90;;;12.80;99.90;;;;;;5043926;28;20028;-73
2024/02/17 10:39:19;;;;;;;22.15;9.77;;;12.80;99.90;;;;;;5040856;28;20548;-74
2024/02/17 10:41:46;;;;;;;20.92;10.30;;;12.80;99.90;;;;;;5045042;28;20033;-73
2024/02/17 10:44:12;;;;;;;29.80;10.82;;;12.90;99.90;;;;;;5038506;28;20037;-72
2024/02/17 10:46:39;;;;;;;22.80;10.65;;;13.00;99.90;;;;;;5037857;28;20082;-73
2024/02/17 10:49:15;;;;;;;19.83;10.38;;;13.10;99.90;;;;;;5039118;28;20112;-72
2024/02/17 10:51:49;;;;;;;25.48;10.55;;;13.20;99.90;;;;;;5039150;28;20055;-73
2024/02/17 10:54:20;;;;;;;23.50;11.32;;;13.30;99.90;;;;;;5041508;28;20032;-73
2024/02/17 10:56:47;;;;;;;24.15;9.35;;;13.30;99.90;;;;;;5039721;28;20096;-72
2024/02/17 10:59:15;;;;;;;18.13;9.95;;;13.40;99.90;;;;;;5042297;28;20032;-72
2024/02/17 11:01:41;;;;;;;22.25;10.18;;;13.40;99.90;;;;;;5038186;28;20024;-73
2024/02/17 11:04:08;;;;;;;23.63;10.57;;;13.40;99.90;;;;;;5038324;28;20049;-72
2024/02/17 11:06:35;;;;;;;21.45;10.32;;;13.50;99.90;;;;;;5042325;28;20017;-72
2024/02/17 11:09:00;;;;;;;19.00;10.20;;;13.50;99.90;;;;;;5038055;28;20028;-73
2024/02/17 11:11:31;;;;;;;27.25;11.27;;;13.50;99.90;;;;;;5039587;28;20502;-73
2024/02/17 11:13:58;;;;;;;26.17;9.30;;;13.50;99.90;;;;;;5041204;28;20496;-72
2024/02/17 11:16:25;;;;;;;21.90;10.23;;;13.50;99.90;;;;;;5041819;28;20420;-72
2024/02/17 11:18:54;;;;;;;21.60;10.75;;;13.60;99.90;;;;;;5037297;28;20086;-72
2024/02/17 11:21:34;;;;;;;20.73;9.10;;;13.60;99.90;;;;;;5039174;28;20109;-72
2024/02/17 11:24:00;;;;;;;21.25;9.45;;;13.60;99.90;;;;;;5042526;28;20646;-72
2024/02/17 11:26:26;;;;;;;23.42;9.07;;;13.70;99.90;;;;;;5040355;28;20029;-72
2024/02/17 11:28:52;;;;;;;19.08;8.95;;;13.70;99.90;;;;;;5034788;28;20407;-72
2024/02/17 11:31:18;;;;;;;21.10;9.40;;;13.80;99.90;;;;;;5043541;28;20026;-72
2024/02/17 11:33:47;;;;;;;19.80;9.73;;;13.90;99.90;;;;;;5039882;28;20075;-72
2024/02/17 11:36:14;;;;;;;24.55;9.80;;;13.80;99.90;;;;;;5038855;28;20022;-72
2024/02/17 11:38:40;;;;;;;19.42;9.07;;;13.80;99.90;;;;;;5037368;28;20105;-73
2024/02/17 11:41:06;;;;;;;22.80;8.98;;;13.90;99.90;;;;;;5043524;28;20103;-73
2024/02/17 11:43:32;;;;;;;20.63;9.38;;;13.80;99.90;;;;;;5039265;28;20052;-72
2024/02/17 11:45:59;;;;;;;20.00;9.38;;;13.90;99.90;;;;;;5037448;28;20025;-73
2024/02/17 11:48:24;;;;;;;19.90;8.30;;;13.90;99.90;;;;;;5032123;28;20569;-73
2024/02/17 11:51:00;;;;;;;20.65;8.80;;;13.90;99.90;;;;;;5039833;28;20071;-73
2024/02/17 11:53:26;;;;;;;17.52;9.07;;;13.90;99.90;;;;;;5038069;28;20094;-72
2024/02/17 11:56:01;;;;;;;18.90;8.60;;;14.00;99.90;;;;;;5035727;28;20009;-72
2024/02/17 11:58:28;;;;;;;17.65;8.88;;;14.00;99.90;;;;;;5032495;28;20486;-72
2024/02/17 12:00:56;;;;;;;23.38;9.75;;;14.00;99.90;;;;;;5041222;28;20040;-71
2024/02/17 12:03:28;;;;;;;22.80;9.55;;;14.10;99.90;;;;;;5038352;28;20259;-71
2024/02/17 12:05:56;;;;;;;20.27;9.07;;;14.20;99.90;;;;;;5037680;28;20025;-71
2024/02/17 12:08:22;;;;;;;21.80;9.05;;;14.10;99.90;;;;;;5037833;28;20482;-71
2024/02/17 12:10:48;;;;;;;26.00;9.70;;;14.20;99.90;;;;;;5038074;28;20101;-71
2024/02/17 12:13:16;;;;;;;21.85;10.35;;;14.20;99.90;;;;;;5036212;28;20059;-72
2024/02/17 12:15:41;;;;;;;21.60;8.90;;;14.20;99.90;;;;;;5039430;28;20551;-72
2024/02/17 12:18:09;;;;;;;19.45;9.45;;;14.10;99.90;;;;;;5040052;28;20108;-73
2024/02/17 12:20:35;;;;;;;13.88;8.07;;;14.20;99.90;;;;;;5040639;28;20108;-72
2024/02/17 12:23:02;;;;;;;19.80;8.82;;;14.10;99.90;;;;;;5039815;28;20104;-72
2024/02/17 12:25:29;;;;;;;20.90;9.25;;;14.10;99.90;;;;;;5039525;28;20027;-73
2024/02/17 12:27:57;;;;;;;24.35;9.55;;;14.30;99.90;;;;;;5029373;28;20481;-72